createdAt,value
2024-05-09T00:00:40.586Z,52.12
2024-05-09T00:03:12.409Z,52.63
2024-05-09T00:05:44.422Z,53.07
2024-05-09T00:08:15.219Z,53.18
2024-05-09T00:10:45.577Z,53.23
2024-05-09T00:13:15.708Z,53.39
2024-05-09T00:15:45.770Z,54.58
2024-05-09T00:18:16.151Z,54.23
2024-05-09T00:20:46.487Z,53.90
2024-05-09T00:23:16.716Z,53.35
2024-05-09T00:25:47.080Z,53.50
2024-05-09T00:28:17.341Z,54.64
2024-05-09T00:30:47.397Z,54.27
2024-05-09T00:33:17.716Z,54.25
2024-05-09T00:35:48.097Z,54.75
2024-05-09T00:38:18.217Z,55.75
2024-05-09T00:40:48.516Z,56.00
2024-05-09T00:43:18.638Z,55.76
2024-05-09T00:45:49.445Z,55.94
2024-05-09T00:48:21.538Z,56.02
2024-05-09T00:50:53.867Z,56.00
2024-05-09T00:53:25.054Z,56.97
2024-05-09T00:55:57.647Z,57.06
2024-05-09T00:58:30.372Z,56.79
2024-05-09T01:01:02.366Z,56.98
2024-05-09T01:03:32.770Z,56.77
2024-05-09T01:06:03.214Z,56.74
2024-05-09T01:08:33.524Z,57.30
2024-05-09T01:11:03.843Z,57.25
2024-05-09T01:13:34.275Z,57.75
2024-05-09T01:16:05.707Z,57.94
2024-05-09T01:18:35.844Z,57.94
2024-05-09T01:21:09.145Z,57.74
2024-05-09T01:23:39.376Z,57.60
2024-05-09T01:26:09.674Z,57.54
2024-05-09T01:28:39.777Z,57.33
2024-05-09T01:31:15.528Z,57.71
2024-05-09T01:33:45.835Z,57.88
2024-05-09T01:36:16.202Z,57.45
2024-05-09T01:38:46.280Z,57.71
2024-05-09T01:41:16.486Z,58.02
2024-05-09T01:43:46.624Z,57.78
2024-05-09T01:46:18.926Z,58.00
2024-05-09T01:48:49.134Z,58.03
2024-05-09T01:51:19.520Z,58.37
2024-05-09T01:53:50.539Z,58.22
2024-05-09T01:56:20.656Z,58.14
2024-05-09T01:58:50.913Z,58.15
2024-05-09T02:01:21.063Z,57.64
2024-05-09T02:03:51.537Z,58.19
2024-05-09T02:06:21.618Z,58.29
2024-05-09T02:08:51.654Z,58.25
2024-05-09T02:11:21.986Z,57.97
2024-05-09T02:13:52.181Z,58.43
2024-05-09T02:16:22.294Z,58.70
2024-05-09T02:18:52.576Z,58.81
2024-05-09T02:21:22.724Z,58.68
2024-05-09T02:23:52.786Z,58.47
2024-05-09T02:26:22.907Z,58.66
2024-05-09T02:28:52.935Z,58.99
2024-05-09T02:31:23.066Z,58.95
2024-05-09T02:33:53.964Z,58.73
2024-05-09T02:36:24.161Z,58.59
2024-05-09T02:38:54.205Z,59.22
2024-05-09T02:41:24.314Z,59.56
2024-05-09T02:43:54.464Z,60.07
2024-05-09T02:46:24.543Z,60.48
2024-05-09T02:48:54.770Z,60.74
2024-05-09T02:51:24.969Z,60.07
2024-05-09T02:53:55.161Z,60.32
2024-05-09T02:56:25.590Z,60.43
2024-05-09T02:58:56.725Z,60.37
2024-05-09T03:01:27.053Z,60.62
2024-05-09T03:03:57.306Z,60.66
2024-05-09T03:06:27.532Z,60.75
2024-05-09T03:08:57.569Z,60.42
2024-05-09T03:11:28.188Z,61.26
2024-05-09T03:13:58.492Z,61.83
2024-05-09T03:16:28.758Z,61.76
2024-05-09T03:18:58.869Z,61.74
2024-05-09T03:21:29.040Z,61.47
2024-05-09T03:23:59.181Z,61.31
2024-05-09T03:26:29.305Z,60.85
2024-05-09T03:28:59.491Z,61.11
2024-05-09T03:31:29.621Z,61.21
2024-05-09T03:33:59.807Z,60.82
2024-05-09T03:36:29.975Z,60.88
2024-05-09T03:38:59.956Z,61.29
2024-05-09T03:41:31.473Z,61.06
2024-05-09T03:44:01.731Z,61.16
2024-05-09T03:46:31.893Z,61.14
2024-05-09T03:49:02.215Z,61.17
2024-05-09T03:51:32.510Z,60.84
2024-05-09T03:54:02.664Z,61.15
2024-05-09T03:56:32.833Z,61.07
2024-05-09T03:59:02.961Z,61.26
2024-05-09T04:01:33.233Z,61.31
2024-05-09T04:04:03.321Z,60.96
2024-05-09T04:06:33.502Z,61.04
2024-05-09T04:09:04.799Z,60.97
2024-05-09T04:11:35.537Z,60.73
2024-05-09T04:14:05.613Z,60.74
2024-05-09T04:16:35.741Z,60.96
2024-05-09T04:19:06.653Z,61.36
2024-05-09T04:21:36.841Z,61.48
2024-05-09T04:24:07.642Z,61.17
2024-05-09T04:26:37.717Z,61.51
2024-05-09T04:29:07.791Z,61.27
2024-05-09T04:31:39.217Z,61.59
2024-05-09T04:34:09.511Z,61.88
2024-05-09T04:36:43.180Z,61.50
2024-05-09T04:39:14.494Z,60.71
2024-05-09T04:41:44.508Z,60.40
2024-05-09T04:44:14.575Z,60.75
2024-05-09T04:46:45.000Z,60.14
2024-05-09T04:49:15.530Z,60.21
2024-05-09T04:51:45.703Z,60.01
2024-05-09T04:54:26.192Z,59.08
2024-05-09T04:57:04.110Z,59.01
2024-05-09T04:59:34.243Z,59.45
2024-05-09T05:02:04.656Z,58.61
2024-05-09T05:04:34.891Z,57.58
2024-05-09T05:07:05.450Z,56.55
2024-05-09T05:09:35.505Z,54.99
2024-05-09T05:12:26.429Z,54.65
2024-05-09T05:14:56.612Z,54.44
2024-05-09T05:17:26.797Z,54.88
2024-05-09T05:19:57.752Z,54.18
2024-05-09T05:22:27.843Z,54.71
2024-05-09T05:24:58.087Z,53.61
2024-05-09T05:27:28.124Z,52.91
2024-05-09T05:29:58.132Z,50.18
2024-05-09T05:32:28.452Z,50.72
2024-05-09T05:34:58.862Z,50.50
2024-05-09T05:37:28.899Z,49.69
2024-05-09T05:39:58.931Z,49.42
2024-05-09T05:42:29.236Z,48.32
2024-05-09T05:44:59.327Z,47.58
2024-05-09T05:47:29.474Z,46.05
2024-05-09T05:50:00.476Z,46.54
2024-05-09T05:52:30.608Z,47.16
2024-05-09T05:55:00.723Z,46.64
2024-05-09T05:57:30.884Z,46.98
2024-05-09T06:00:00.879Z,45.10
2024-05-09T06:02:31.025Z,44.06
2024-05-09T06:05:01.306Z,44.23
2024-05-09T06:07:31.502Z,44.05
2024-05-09T06:10:01.651Z,44.23
2024-05-09T06:12:31.670Z,43.23
2024-05-09T06:15:01.873Z,43.05
2024-05-09T06:17:32.042Z,43.74
2024-05-09T06:20:02.361Z,44.25
2024-05-09T06:22:32.522Z,43.69
2024-05-09T06:25:02.613Z,43.30
2024-05-09T06:27:32.706Z,43.30
2024-05-09T06:30:02.986Z,43.54
2024-05-09T06:32:33.927Z,43.69
2024-05-09T06:35:04.487Z,43.05
2024-05-09T06:37:34.609Z,42.42
2024-05-09T06:40:07.304Z,42.75
2024-05-09T06:42:37.717Z,42.72
2024-05-09T06:45:10.043Z,42.26
2024-05-09T06:47:40.476Z,42.64
2024-05-09T06:50:19.698Z,42.48
2024-05-09T06:52:54.190Z,41.85
2024-05-09T06:55:24.423Z,41.14
2024-05-09T06:57:54.554Z,39.97
2024-05-09T07:00:30.910Z,40.62
2024-05-09T07:03:11.625Z,40.14
2024-05-09T07:05:43.194Z,40.41
2024-05-09T07:08:14.110Z,38.99
2024-05-09T07:10:44.477Z,39.09
2024-05-09T07:13:15.762Z,39.23
2024-05-09T07:15:46.218Z,40.18
2024-05-09T07:18:18.589Z,40.58
2024-05-09T07:20:50.558Z,40.99
2024-05-09T07:23:21.221Z,39.76
2024-05-09T07:25:51.452Z,39.84
2024-05-09T07:28:22.502Z,39.58
2024-05-09T07:30:52.519Z,39.46
2024-05-09T07:33:24.443Z,40.14
2024-05-09T07:35:54.938Z,39.81
2024-05-09T07:38:25.051Z,39.88
2024-05-09T07:40:55.154Z,39.77
2024-05-09T07:43:26.845Z,39.80
2024-05-09T07:45:59.699Z,39.08
2024-05-09T07:53:52.376Z,39.61
2024-05-09T07:56:26.099Z,39.29
2024-05-09T07:58:56.633Z,38.40
2024-05-09T08:01:27.331Z,38.63
2024-05-09T08:03:57.822Z,39.32
2024-05-09T08:06:28.532Z,38.95
2024-05-09T08:09:02.640Z,39.00
2024-05-09T08:11:34.934Z,38.40
2024-05-09T08:14:05.018Z,37.51
2024-05-09T08:16:35.083Z,37.12
2024-05-09T08:19:05.288Z,37.62
2024-05-09T08:21:35.350Z,38.03
2024-05-09T08:24:06.014Z,38.10
2024-05-09T08:26:36.083Z,37.81
2024-05-09T08:29:06.173Z,38.30
2024-05-09T08:31:40.139Z,38.28
2024-05-09T08:34:10.928Z,38.24
2024-05-09T08:36:42.168Z,36.86
2024-05-09T08:39:12.341Z,36.71
2024-05-09T08:41:49.478Z,37.33
2024-05-09T08:44:21.510Z,37.18
2024-05-09T08:46:52.931Z,36.28
2024-05-09T08:49:25.490Z,36.33
2024-05-09T08:51:55.656Z,36.43
2024-05-09T08:54:25.781Z,36.24
2024-05-09T08:56:57.009Z,35.46
2024-05-09T08:59:35.711Z,34.21
2024-05-09T09:02:07.097Z,34.26
2024-05-09T09:04:41.299Z,34.57
2024-05-09T09:07:11.966Z,33.89
2024-05-09T09:09:45.531Z,33.58
2024-05-09T09:12:15.643Z,32.97
2024-05-09T09:14:45.746Z,33.32
2024-05-09T09:17:17.033Z,33.85
2024-05-09T09:19:47.155Z,33.92
2024-05-09T09:22:19.475Z,33.68
2024-05-09T09:24:49.767Z,33.39
2024-05-09T09:27:19.945Z,32.42
2024-05-09T09:29:50.466Z,33.16
2024-05-09T09:32:20.539Z,32.19
2024-05-09T09:34:51.148Z,32.95
2024-05-09T09:37:24.116Z,32.81
2024-05-09T09:39:54.999Z,33.39
2024-05-09T09:42:29.790Z,33.80
2024-05-09T09:45:05.007Z,33.93
2024-05-09T09:47:39.659Z,32.92
2024-05-09T09:50:16.792Z,33.18
2024-05-09T09:52:51.201Z,33.68
2024-05-09T09:55:22.770Z,33.53
2024-05-09T09:57:56.606Z,34.62
2024-05-09T10:00:33.077Z,32.28
2024-05-09T10:03:04.575Z,33.67
2024-05-09T10:05:35.827Z,33.32
2024-05-09T10:08:09.142Z,34.07
2024-05-09T10:10:39.627Z,37.60
2024-05-09T10:13:10.312Z,38.44
2024-05-09T10:15:47.593Z,37.89
2024-05-09T10:18:22.535Z,36.03
2024-05-09T10:20:54.279Z,34.40
2024-05-09T10:23:28.470Z,34.83
2024-05-09T10:26:00.033Z,34.42
2024-05-09T10:28:30.815Z,34.29
2024-05-09T10:31:09.267Z,32.93
2024-05-09T10:33:48.963Z,33.19
2024-05-09T10:36:23.331Z,33.08
2024-05-09T10:38:54.649Z,33.48
2024-05-09T10:41:25.423Z,34.14
2024-05-09T10:43:55.538Z,34.12
2024-05-09T10:46:26.536Z,33.54
2024-05-09T10:49:00.971Z,32.67
2024-05-09T10:51:37.592Z,33.07
2024-05-09T10:54:07.894Z,33.49
2024-05-09T10:56:37.918Z,33.54
2024-05-09T10:59:08.217Z,34.11
2024-05-09T11:01:38.967Z,33.46
2024-05-09T11:04:10.324Z,32.27
2024-05-09T11:06:41.086Z,32.93
2024-05-09T11:09:11.701Z,33.45
2024-05-09T11:11:42.019Z,34.00
2024-05-09T11:14:17.020Z,34.59
2024-05-09T11:16:47.039Z,34.77
2024-05-09T11:19:19.569Z,34.63
2024-05-09T11:21:54.024Z,34.65
2024-05-09T11:24:24.659Z,33.43
2024-05-09T11:26:54.779Z,33.86
2024-05-09T11:29:36.723Z,33.09
2024-05-09T11:32:08.916Z,33.18
2024-05-09T11:34:41.681Z,32.85
2024-05-09T11:37:12.992Z,33.79
2024-05-09T11:39:43.230Z,34.00
2024-05-09T11:42:14.215Z,33.32
2024-05-09T11:44:44.354Z,37.42
2024-05-09T11:47:14.518Z,39.29
2024-05-09T11:49:45.698Z,37.44
2024-05-09T11:52:15.996Z,38.37
2024-05-09T11:54:46.257Z,38.87
2024-05-09T11:57:16.555Z,36.88
2024-05-09T11:59:46.701Z,34.50
2024-05-09T12:02:17.037Z,34.42
2024-05-09T12:04:48.555Z,35.98
2024-05-09T12:07:19.614Z,37.56
2024-05-09T12:09:50.098Z,40.38
2024-05-09T12:12:20.320Z,40.53
2024-05-09T12:14:50.399Z,40.48
2024-05-09T12:17:20.532Z,40.37
2024-05-09T12:19:52.538Z,40.54
2024-05-09T12:22:22.614Z,40.27
2024-05-09T12:24:52.777Z,37.29
2024-05-09T12:27:24.490Z,35.82
2024-05-09T12:29:54.852Z,35.38
2024-05-09T12:32:25.104Z,34.64
2024-05-09T12:34:55.360Z,35.40
2024-05-09T12:37:25.679Z,35.48
2024-05-09T12:39:55.892Z,35.61
2024-05-09T12:42:28.609Z,36.67
2024-05-09T12:44:59.769Z,36.74
2024-05-09T12:47:29.998Z,35.55
2024-05-09T12:50:01.407Z,37.44
2024-05-09T12:52:31.463Z,37.80
2024-05-09T12:55:01.582Z,35.34
2024-05-09T12:57:31.754Z,35.34
2024-05-09T13:00:02.933Z,36.12
2024-05-09T13:02:33.309Z,36.55
2024-05-09T13:05:03.925Z,36.89
2024-05-09T13:07:34.159Z,34.37
2024-05-09T13:10:05.666Z,35.06
2024-05-09T13:12:37.156Z,35.27
2024-05-09T13:15:08.564Z,36.68
2024-05-09T13:17:38.723Z,35.52
2024-05-09T13:20:18.689Z,35.65
2024-05-09T13:22:55.806Z,38.52
2024-05-09T13:25:25.967Z,38.70
2024-05-09T13:27:56.720Z,38.40
2024-05-09T13:30:35.520Z,37.98
2024-05-09T13:33:11.988Z,35.23
2024-05-09T13:35:49.477Z,36.12
2024-05-09T13:38:24.430Z,37.68
2024-05-09T13:40:54.559Z,36.61
2024-05-09T13:43:25.231Z,36.44
2024-05-09T13:45:57.171Z,36.98
2024-05-09T13:48:27.793Z,37.57
2024-05-09T13:50:59.101Z,37.63
2024-05-09T13:53:29.157Z,36.08
2024-05-09T13:55:59.277Z,36.09
2024-05-09T13:58:29.387Z,36.14
2024-05-09T14:00:59.789Z,36.30
2024-05-09T14:03:30.705Z,35.55
2024-05-09T14:06:02.097Z,35.44
2024-05-09T14:08:32.647Z,36.46
2024-05-09T14:11:03.053Z,36.18
2024-05-09T14:13:33.312Z,36.11
2024-05-09T14:16:03.693Z,36.22
2024-05-09T14:18:34.035Z,36.30
2024-05-09T14:21:04.511Z,36.22
2024-05-09T14:23:34.564Z,36.56
2024-05-09T14:26:04.802Z,36.51
2024-05-09T14:28:34.932Z,36.36
2024-05-09T14:31:05.531Z,36.11
2024-05-09T14:33:35.841Z,36.07
2024-05-09T14:36:07.042Z,36.08
2024-05-09T14:38:37.166Z,35.91
2024-05-09T14:41:09.163Z,36.12
2024-05-09T14:43:39.214Z,36.66
2024-05-09T14:46:09.993Z,36.38
2024-05-09T14:48:40.751Z,36.46
2024-05-09T14:51:10.915Z,36.81
2024-05-09T14:53:40.935Z,36.00
2024-05-09T14:56:11.492Z,36.14
2024-05-09T14:58:41.863Z,36.06
2024-05-09T15:01:12.137Z,36.19
2024-05-09T15:03:42.554Z,36.22
2024-05-09T15:06:13.052Z,35.91
2024-05-09T15:08:43.293Z,35.26
2024-05-09T15:11:13.456Z,35.81
2024-05-09T15:13:43.579Z,36.23
2024-05-09T15:16:13.744Z,35.90
2024-05-09T15:18:44.698Z,35.79
2024-05-09T15:21:15.529Z,35.49
2024-05-09T15:23:45.671Z,36.01
2024-05-09T15:26:16.581Z,36.37
2024-05-09T15:28:46.974Z,36.28
2024-05-09T15:31:17.099Z,35.99
2024-05-09T15:33:47.451Z,36.09
2024-05-09T15:36:18.099Z,36.18
2024-05-09T15:38:48.518Z,36.15
2024-05-09T15:41:18.642Z,36.13
2024-05-09T15:43:48.810Z,36.35
2024-05-09T15:46:19.026Z,36.35
2024-05-09T15:48:49.354Z,35.85
2024-05-09T15:51:19.532Z,36.16
2024-05-09T15:53:49.692Z,36.72
2024-05-09T15:56:20.058Z,36.99
2024-05-09T15:58:50.178Z,36.83
2024-05-09T16:01:20.410Z,36.65
2024-05-09T16:03:51.289Z,36.54
2024-05-09T16:06:21.519Z,36.14
2024-05-09T16:08:51.626Z,36.04
2024-05-09T16:11:21.712Z,36.05
2024-05-09T16:13:51.832Z,36.17
2024-05-09T16:16:21.935Z,36.36
2024-05-09T16:18:52.356Z,36.36
2024-05-09T16:21:22.644Z,36.37
2024-05-09T16:23:52.873Z,36.43
2024-05-09T16:26:23.019Z,36.11
2024-05-09T16:28:53.066Z,36.07
2024-05-09T16:31:23.424Z,35.88
2024-05-09T16:33:54.031Z,36.06
2024-05-09T16:36:24.507Z,36.39
2024-05-09T16:38:54.605Z,36.53
2024-05-09T16:41:24.870Z,36.69
2024-05-09T16:43:54.926Z,36.70
2024-05-09T16:46:25.259Z,36.20
2024-05-09T16:48:55.767Z,36.23
2024-05-09T16:51:26.263Z,36.22
2024-05-09T16:53:56.351Z,36.56
2024-05-09T16:56:26.643Z,36.78
2024-05-09T16:58:57.268Z,37.08
2024-05-09T17:01:27.356Z,37.37
2024-05-09T17:03:57.768Z,37.08
2024-05-09T17:06:28.156Z,37.00
2024-05-09T17:09:05.292Z,37.08
2024-05-09T17:11:38.844Z,37.20
2024-05-09T17:14:09.357Z,37.63
2024-05-09T17:16:39.809Z,37.88
2024-05-09T17:19:09.983Z,38.07
2024-05-09T17:21:40.143Z,38.12
2024-05-09T17:24:10.348Z,38.46
2024-05-09T17:26:40.409Z,38.70
2024-05-09T17:29:12.478Z,38.84
2024-05-09T17:31:42.853Z,38.13
2024-05-09T17:34:13.345Z,38.00
2024-05-09T17:36:43.825Z,38.25
2024-05-09T17:39:14.274Z,38.10
2024-05-09T17:41:45.290Z,38.41
2024-05-09T17:44:15.296Z,38.47
2024-05-09T17:46:45.595Z,38.58
2024-05-09T17:49:15.808Z,38.90
2024-05-09T17:51:53.876Z,39.24
2024-05-09T17:54:23.936Z,39.48
2024-05-09T17:56:54.005Z,39.56
2024-05-09T17:59:24.134Z,39.97
2024-05-09T18:01:54.515Z,40.32
2024-05-09T18:04:25.212Z,40.63
2024-05-09T18:06:55.366Z,40.73
2024-05-09T18:09:25.482Z,40.90
2024-05-09T18:11:55.587Z,41.18
2024-05-09T18:14:25.753Z,41.26
2024-05-09T18:16:55.973Z,41.41
2024-05-09T18:19:26.239Z,41.56
2024-05-09T18:21:56.888Z,41.87
2024-05-09T18:24:27.239Z,42.26
2024-05-09T18:26:57.413Z,42.32
2024-05-09T18:29:27.529Z,42.59
2024-05-09T18:31:57.628Z,42.87
2024-05-09T18:34:27.978Z,42.99
2024-05-09T18:36:59.240Z,43.25
2024-05-09T18:39:30.367Z,43.35
2024-05-09T18:42:01.728Z,43.50
2024-05-09T18:44:32.620Z,43.52
2024-05-09T18:47:03.944Z,43.87
2024-05-09T18:49:34.159Z,43.98
2024-05-09T18:52:04.774Z,44.12
2024-05-09T18:54:34.985Z,44.28
2024-05-09T18:57:05.324Z,44.52
2024-05-09T18:59:35.378Z,44.66
2024-05-09T19:02:06.510Z,44.95
2024-05-09T19:04:36.953Z,45.25
2024-05-09T19:07:07.442Z,45.47
2024-05-09T19:09:37.607Z,45.74
2024-05-09T19:12:09.306Z,45.70
2024-05-09T19:14:39.396Z,45.81
2024-05-09T19:17:09.840Z,46.08
2024-05-09T19:19:39.888Z,46.28
2024-05-09T19:22:10.321Z,46.51
2024-05-09T19:24:40.414Z,46.51
2024-05-09T19:27:10.624Z,46.60
2024-05-09T19:29:40.724Z,46.83
2024-05-09T19:32:10.798Z,47.26
2024-05-09T19:34:40.848Z,47.33
2024-05-09T19:37:10.989Z,47.45
2024-05-09T19:39:41.209Z,47.81
2024-05-09T19:42:11.305Z,48.01
2024-05-09T19:44:41.353Z,48.50
2024-05-09T19:47:12.592Z,48.93
2024-05-09T19:49:42.666Z,48.99
2024-05-09T19:52:12.774Z,49.21
2024-05-09T19:54:44.548Z,49.63
2024-05-09T19:57:14.704Z,49.94
2024-05-09T19:59:45.184Z,50.37
2024-05-09T20:02:17.366Z,50.92
2024-05-09T20:04:48.991Z,51.24
2024-05-09T20:07:19.283Z,51.48
2024-05-09T20:09:49.382Z,51.78
2024-05-09T20:12:19.426Z,51.83
2024-05-09T20:14:49.454Z,52.07
2024-05-09T20:17:19.578Z,52.43
2024-05-09T20:19:49.838Z,52.44
2024-05-09T20:22:20.013Z,52.55
2024-05-09T20:24:50.198Z,52.57
2024-05-09T20:27:20.439Z,52.87
2024-05-09T20:29:50.634Z,52.97
2024-05-09T20:32:20.939Z,53.00
2024-05-09T20:34:51.924Z,53.22
2024-05-09T20:37:22.985Z,53.51
2024-05-09T20:39:53.298Z,53.70
2024-05-09T20:42:23.675Z,54.14
2024-05-09T20:44:53.659Z,54.09
2024-05-09T20:47:23.769Z,54.26
2024-05-09T20:49:53.859Z,54.20
2024-05-09T20:52:24.051Z,54.33
2024-05-09T20:54:54.205Z,54.41
2024-05-09T20:57:24.268Z,54.57
2024-05-09T20:59:54.366Z,54.73
2024-05-09T21:02:24.575Z,54.79
2024-05-09T21:04:54.846Z,54.96
2024-05-09T21:07:25.026Z,55.12
2024-05-09T21:09:55.245Z,55.15
2024-05-09T21:12:25.387Z,55.10
2024-05-09T21:14:55.357Z,55.25
2024-05-09T21:17:25.477Z,55.56
2024-05-09T21:19:55.856Z,55.60
2024-05-09T21:22:25.997Z,55.81
2024-05-09T21:24:56.047Z,55.94
2024-05-09T21:27:26.186Z,56.09
2024-05-09T21:29:56.153Z,56.08
2024-05-09T21:32:26.349Z,56.46
2024-05-09T21:34:56.456Z,56.43
2024-05-09T21:37:26.656Z,56.60
2024-05-09T21:39:56.682Z,56.50
2024-05-09T21:42:27.008Z,56.65
2024-05-09T21:44:57.014Z,56.69
2024-05-09T21:47:27.193Z,56.82
2024-05-09T21:49:57.431Z,57.38
2024-05-09T21:52:27.602Z,57.45
2024-05-09T21:54:57.606Z,57.52
2024-05-09T21:57:27.698Z,57.49
2024-05-09T21:59:57.723Z,57.68
2024-05-09T22:02:27.892Z,57.73
2024-05-09T22:04:58.167Z,57.91
2024-05-09T22:07:28.251Z,58.19
2024-05-09T22:09:58.408Z,58.18
2024-05-09T22:12:28.574Z,58.17
2024-05-09T22:14:58.749Z,58.10
2024-05-09T22:17:28.970Z,58.35
2024-05-09T22:19:59.721Z,58.41
2024-05-09T22:22:29.894Z,58.69
2024-05-09T22:24:59.993Z,58.93
2024-05-09T22:27:30.245Z,59.20
2024-05-09T22:30:00.439Z,59.25
2024-05-09T22:32:30.907Z,59.22
2024-05-09T22:35:01.152Z,59.23
2024-05-09T22:37:31.286Z,59.29
2024-05-09T22:40:03.264Z,59.49
2024-05-09T22:42:34.970Z,59.90
2024-05-09T22:45:06.022Z,60.02
2024-05-09T22:47:36.151Z,60.20
2024-05-09T22:50:12.867Z,60.37
2024-05-09T22:52:46.282Z,60.58
2024-05-09T22:55:16.879Z,60.76
2024-05-09T22:57:47.315Z,60.70
2024-05-09T23:00:21.792Z,60.90
2024-05-09T23:02:56.511Z,60.94
2024-05-09T23:05:27.115Z,61.14
2024-05-09T23:07:57.732Z,61.33
2024-05-09T23:10:35.182Z,61.36
2024-05-09T23:13:08.578Z,61.28
2024-05-09T23:15:39.290Z,61.41
2024-05-09T23:18:10.091Z,61.28
2024-05-09T23:20:40.583Z,61.49
2024-05-09T23:23:12.183Z,61.57
2024-05-09T23:25:42.807Z,61.65
2024-05-09T23:28:13.132Z,61.72
2024-05-09T23:30:43.568Z,61.81
2024-05-09T23:33:14.768Z,61.93
2024-05-09T23:35:45.304Z,62.02
2024-05-09T23:38:15.822Z,62.05
2024-05-09T23:40:46.515Z,62.25
2024-05-09T23:43:17.526Z,62.21
2024-05-09T23:45:47.779Z,62.42
2024-05-09T23:48:18.346Z,62.49
2024-05-09T23:50:48.548Z,62.70
2024-05-09T23:53:18.581Z,62.73
2024-05-09T23:55:48.900Z,62.76
2024-05-09T23:58:19.610Z,62.96
